createdAt,value
2022-11-07T00:01:51.843Z,52.03
2022-11-07T00:04:18.933Z,43.60
2022-11-07T00:06:46.807Z,47.03
2022-11-07T00:09:13.883Z,47.42
2022-11-07T00:11:40.753Z,55.88
2022-11-07T00:14:07.790Z,50.00
2022-11-07T00:16:35.257Z,51.45
2022-11-07T00:19:05.574Z,45.92
2022-11-07T00:21:32.722Z,53.28
2022-11-07T00:24:02.456Z,49.55
2022-11-07T00:26:29.541Z,53.00
2022-11-07T00:28:56.678Z,49.63
2022-11-07T00:31:23.705Z,46.58
2022-11-07T00:33:51.096Z,55.53
2022-11-07T00:36:26.643Z,50.20
2022-11-07T00:38:54.471Z,55.83
2022-11-07T00:41:22.870Z,46.03
2022-11-07T00:43:50.190Z,59.80
2022-11-07T00:46:19.322Z,55.60
2022-11-07T00:48:47.395Z,59.72
2022-11-07T00:51:17.322Z,56.55
2022-11-07T00:53:47.670Z,48.53
2022-11-07T00:56:17.485Z,59.53
2022-11-07T00:58:44.609Z,57.55
2022-11-07T01:01:14.890Z,47.42
2022-11-07T01:04:00.048Z,55.22
2022-11-07T01:06:32.057Z,52.57
2022-11-07T01:08:59.673Z,63.25
2022-11-07T01:11:28.487Z,47.70
2022-11-07T01:13:57.205Z,50.42
2022-11-07T01:16:28.348Z,58.65
2022-11-07T01:18:58.576Z,49.75
2022-11-07T01:21:25.644Z,65.78
2022-11-07T01:23:52.627Z,54.17
2022-11-07T01:26:19.684Z,56.53
2022-11-07T01:28:46.732Z,52.72
2022-11-07T01:31:16.368Z,35.38
2022-11-07T01:33:44.342Z,51.88
2022-11-07T01:36:16.836Z,44.25
2022-11-07T01:38:46.674Z,60.60
2022-11-07T01:41:27.138Z,50.70
2022-11-07T01:44:02.060Z,54.47
2022-11-07T01:46:33.451Z,48.03
2022-11-07T01:49:25.904Z,57.58
2022-11-07T01:52:01.045Z,38.05
2022-11-07T01:54:35.926Z,58.75
2022-11-07T01:57:08.631Z,51.22
2022-11-07T01:59:37.593Z,43.97
2022-11-07T02:02:05.481Z,47.25
2022-11-07T02:04:32.700Z,48.13
2022-11-07T02:07:26.340Z,41.67
2022-11-07T02:09:54.504Z,49.65
2022-11-07T02:12:24.142Z,40.03
2022-11-07T02:14:51.704Z,45.28
2022-11-07T02:17:19.288Z,47.70
2022-11-07T02:19:56.136Z,45.53
2022-11-07T02:23:04.745Z,40.58
2022-11-07T02:25:31.705Z,45.08
2022-11-07T02:28:02.748Z,42.33
2022-11-07T02:30:34.714Z,40.42
2022-11-07T02:33:03.079Z,50.45
2022-11-07T02:35:32.575Z,47.35
2022-11-07T02:38:00.147Z,38.35
2022-11-07T02:40:30.590Z,36.72
2022-11-07T02:42:59.874Z,42.03
2022-11-07T02:45:30.330Z,43.38
2022-11-07T02:47:57.405Z,45.85
2022-11-07T02:50:24.573Z,46.42
2022-11-07T02:52:51.603Z,42.60
2022-11-07T02:55:18.502Z,39.55
2022-11-07T02:57:45.487Z,38.22
2022-11-07T03:00:13.943Z,36.25
2022-11-07T03:02:47.333Z,33.45
2022-11-07T03:05:19.437Z,43.63
2022-11-07T03:07:48.439Z,41.20
2022-11-07T03:10:17.158Z,34.85
2022-11-07T03:12:44.219Z,45.67
2022-11-07T03:15:12.263Z,40.45
2022-11-07T03:17:39.631Z,36.17
2022-11-07T03:20:08.149Z,34.88
2022-11-07T03:22:35.304Z,45.20
2022-11-07T03:25:02.337Z,41.53
2022-11-07T03:27:29.246Z,34.67
2022-11-07T03:29:56.198Z,37.90
2022-11-07T03:32:23.252Z,28.63
2022-11-07T03:34:50.431Z,36.20
2022-11-07T03:37:17.734Z,37.38
2022-11-07T03:39:45.964Z,38.35
2022-11-07T03:42:13.126Z,24.52
2022-11-07T03:44:40.826Z,35.75
2022-11-07T03:47:08.027Z,35.17
2022-11-07T03:49:35.003Z,35.60
2022-11-07T03:52:02.029Z,48.97
2022-11-07T03:54:28.995Z,41.67
2022-11-07T03:56:56.107Z,32.58
2022-11-07T03:59:28.174Z,35.72
2022-11-07T04:01:55.256Z,32.50
2022-11-07T04:04:22.342Z,36.45
2022-11-07T04:06:49.354Z,33.17
2022-11-07T04:09:16.661Z,36.15
2022-11-07T04:12:02.518Z,29.48
2022-11-07T04:15:01.711Z,34.30
2022-11-07T04:17:30.722Z,30.38
2022-11-07T04:19:57.642Z,33.00
2022-11-07T04:22:26.305Z,27.13
2022-11-07T04:24:53.461Z,34.15
2022-11-07T04:27:39.378Z,36.25
2022-11-07T04:30:22.636Z,25.70
2022-11-07T04:32:50.711Z,33.38
2022-11-07T04:35:18.761Z,35.90
2022-11-07T04:37:46.466Z,29.23
2022-11-07T04:40:13.726Z,25.20
2022-11-07T04:42:41.030Z,28.38
2022-11-07T04:45:08.391Z,26.73
2022-11-07T04:47:40.170Z,39.63
2022-11-07T04:50:10.974Z,24.75
2022-11-07T04:52:37.957Z,26.17
2022-11-07T04:55:06.900Z,22.98
2022-11-07T04:57:33.938Z,31.80
2022-11-07T05:00:01.025Z,35.08
2022-11-07T05:02:28.461Z,26.52
2022-11-07T05:04:55.482Z,28.35
2022-11-07T05:07:22.389Z,26.85
2022-11-07T05:09:49.328Z,27.95
2022-11-07T05:12:16.578Z,24.50
2022-11-07T05:14:43.520Z,27.90
2022-11-07T05:17:15.501Z,25.27
2022-11-07T05:19:45.598Z,25.73
2022-11-07T05:22:33.783Z,28.23
2022-11-07T05:25:04.001Z,20.52
2022-11-07T05:27:30.862Z,29.55
2022-11-07T05:29:57.911Z,20.90
2022-11-07T05:32:27.031Z,25.13
2022-11-07T05:34:54.158Z,22.35
2022-11-07T05:37:21.251Z,24.27
2022-11-07T05:39:54.809Z,24.67
2022-11-07T05:42:22.034Z,18.25
2022-11-07T05:44:49.954Z,23.27
2022-11-07T05:47:16.902Z,22.27
2022-11-07T05:49:43.928Z,21.23
2022-11-07T05:52:10.849Z,24.52
2022-11-07T05:54:37.811Z,17.25
2022-11-07T05:57:07.154Z,21.38
2022-11-07T05:59:38.055Z,23.17
2022-11-07T06:02:05.385Z,21.05
2022-11-07T06:04:38.022Z,20.75
2022-11-07T06:07:05.049Z,22.35
2022-11-07T06:09:31.946Z,15.80
2022-11-07T06:11:58.950Z,24.98
2022-11-07T06:14:28.684Z,20.08
2022-11-07T06:16:55.872Z,19.30
2022-11-07T06:19:22.958Z,22.20
2022-11-07T06:21:52.665Z,22.48
2022-11-07T06:24:24.742Z,19.42
2022-11-07T06:26:52.039Z,22.90
2022-11-07T06:29:19.143Z,22.13
2022-11-07T06:31:49.268Z,17.42
2022-11-07T06:34:17.877Z,19.00
2022-11-07T06:37:01.583Z,24.65
2022-11-07T06:39:48.598Z,20.98
2022-11-07T06:42:15.833Z,20.80
2022-11-07T06:44:43.409Z,18.88
2022-11-07T06:47:13.323Z,17.45
2022-11-07T06:49:49.652Z,19.05
2022-11-07T06:52:21.765Z,18.48
2022-11-07T06:54:49.044Z,20.25
2022-11-07T06:57:16.401Z,19.13
2022-11-07T06:59:47.667Z,18.52
2022-11-07T07:02:44.301Z,17.23
2022-11-07T07:05:08.525Z,18.60
2022-11-07T07:07:36.742Z,18.15
2022-11-07T07:10:04.287Z,19.10
2022-11-07T07:12:31.883Z,20.17
2022-11-07T07:14:59.398Z,19.13
2022-11-07T07:17:29.335Z,20.05
2022-11-07T07:19:56.432Z,20.20
2022-11-07T07:22:23.691Z,17.30
2022-11-07T07:27:37.804Z,20.55
2022-11-07T07:30:05.468Z,20.15
2022-11-07T07:32:35.153Z,22.02
2022-11-07T07:35:02.769Z,18.60
2022-11-07T07:37:30.294Z,18.85
2022-11-07T07:39:57.375Z,21.30
2022-11-07T07:42:25.039Z,19.63
2022-11-07T07:44:54.143Z,17.50
2022-11-07T07:47:21.243Z,17.85
2022-11-07T07:49:50.616Z,17.73
2022-11-07T07:52:18.858Z,22.27
2022-11-07T07:54:45.969Z,18.80
2022-11-07T07:57:12.960Z,19.98
2022-11-07T07:59:40.155Z,18.75
2022-11-07T08:02:12.981Z,18.67
2022-11-07T08:04:42.883Z,21.35
2022-11-07T08:07:10.690Z,18.05
2022-11-07T08:09:37.719Z,20.23
2022-11-07T08:12:11.321Z,19.23
2022-11-07T08:14:38.467Z,16.88
2022-11-07T08:17:05.787Z,18.63
2022-11-07T08:19:32.914Z,17.65
2022-11-07T08:22:03.619Z,19.08
2022-11-07T08:24:30.868Z,21.88
2022-11-07T08:27:47.108Z,19.20
2022-11-07T08:29:50.852Z,17.70
2022-11-07T08:32:19.981Z,18.73
2022-11-07T08:34:49.536Z,18.52
2022-11-07T08:37:16.734Z,19.15
2022-11-07T08:39:43.968Z,19.60
2022-11-07T08:42:11.097Z,21.23
2022-11-07T08:44:38.090Z,19.48
2022-11-07T08:47:08.464Z,18.75
2022-11-07T08:49:35.740Z,19.02
2022-11-07T08:52:02.758Z,18.30
2022-11-07T08:54:32.704Z,19.70
2022-11-07T08:56:59.746Z,21.70
2022-11-07T08:59:28.354Z,19.83
2022-11-07T09:02:36.839Z,18.52
2022-11-07T09:05:56.548Z,19.45
2022-11-07T09:33:27.159Z,16.25
2022-11-07T09:40:19.751Z,15.65
2022-11-07T09:47:25.234Z,17.10
2022-11-07T09:57:14.455Z,16.55
2022-11-07T09:57:46.614Z,22.92
2022-11-07T10:10:00.647Z,18.33
2022-11-07T10:13:03.503Z,17.40
2022-11-07T10:16:08.147Z,19.92
2022-11-07T10:19:56.959Z,19.92
2022-11-07T10:36:09.810Z,19.17
2022-11-07T10:42:17.244Z,20.35
2022-11-07T10:44:48.865Z,17.92
2022-11-07T10:47:28.436Z,17.40
2022-11-07T11:45:43.040Z,18.67
2022-11-07T11:48:39.761Z,18.10
2022-11-07T11:53:46.869Z,17.17
2022-11-07T11:56:25.894Z,15.25
2022-11-07T11:59:25.080Z,20.75
2022-11-07T12:02:20.373Z,16.23
2022-11-07T12:05:04.256Z,20.13
2022-11-07T12:07:59.020Z,18.42
2022-11-07T12:10:41.072Z,16.25
2022-11-07T12:13:37.503Z,23.05
2022-11-07T12:18:50.066Z,18.20
2022-11-07T12:21:26.028Z,24.63
2022-11-07T12:24:35.804Z,21.17
2022-11-07T12:27:51.008Z,27.27
2022-11-07T12:30:34.273Z,22.15
2022-11-07T12:33:19.427Z,21.33
2022-11-07T12:36:18.658Z,18.73
2022-11-07T12:39:11.873Z,16.40
2022-11-07T12:41:58.941Z,16.27
2022-11-07T12:44:51.608Z,16.13
2022-11-07T12:47:39.221Z,16.00
2022-11-07T12:50:11.187Z,15.77
2022-11-07T12:52:57.473Z,19.95
2022-11-07T12:55:46.866Z,16.55
2022-11-07T12:58:25.839Z,14.32
2022-11-07T13:00:53.516Z,15.85
2022-11-07T13:03:37.191Z,15.40
2022-11-07T13:06:24.501Z,16.70
2022-11-07T13:09:18.102Z,16.40
2022-11-07T13:11:56.926Z,18.67
2022-11-07T13:14:31.974Z,16.67
2022-11-07T13:16:58.874Z,15.48
2022-11-07T13:19:32.303Z,19.02
2022-11-07T13:22:04.936Z,15.05
2022-11-07T13:24:33.774Z,15.10
2022-11-07T13:27:00.681Z,19.58
2022-11-07T13:29:37.191Z,15.45
2022-11-07T13:32:15.565Z,15.80
2022-11-07T13:34:57.115Z,16.33
2022-11-07T13:37:34.956Z,15.68
2022-11-07T13:40:14.385Z,17.15
2022-11-07T13:42:44.124Z,16.65
2022-11-07T13:45:48.700Z,15.40
2022-11-07T13:48:21.763Z,14.27
2022-11-07T13:51:11.456Z,17.92
2022-11-07T13:53:48.144Z,13.98
2022-11-07T13:56:35.286Z,14.27
2022-11-07T13:59:06.090Z,14.35
2022-11-07T14:01:55.389Z,13.10
2022-11-07T14:04:27.017Z,14.77
2022-11-07T14:06:58.977Z,13.77
2022-11-07T14:09:28.974Z,12.32
2022-11-07T14:11:56.512Z,14.02
2022-11-07T14:14:25.820Z,14.82
2022-11-07T14:16:59.079Z,15.13
2022-11-07T14:19:30.623Z,15.23
2022-11-07T14:21:59.287Z,13.48
2022-11-07T14:24:32.853Z,16.30
2022-11-07T14:27:06.356Z,15.55
2022-11-07T14:29:33.887Z,15.35
2022-11-07T14:32:03.956Z,13.02
2022-11-07T14:34:31.374Z,13.52
2022-11-07T14:37:01.144Z,14.57
2022-11-07T14:39:31.095Z,13.27
2022-11-07T14:42:00.790Z,14.30
2022-11-07T14:44:55.611Z,14.75
2022-11-07T14:47:30.536Z,14.02
2022-11-07T14:50:01.461Z,14.07
2022-11-07T14:52:52.966Z,13.75
2022-11-07T14:55:34.260Z,13.95
2022-11-07T14:58:03.419Z,14.05
2022-11-07T15:00:31.972Z,14.57
2022-11-07T15:03:00.520Z,13.70
2022-11-07T15:05:31.669Z,16.02
2022-11-07T15:08:00.011Z,14.35
2022-11-07T15:10:41.548Z,14.60
2022-11-07T15:13:26.504Z,15.02
2022-11-07T15:16:22.178Z,14.30
2022-11-07T15:18:58.353Z,13.48
2022-11-07T15:21:35.512Z,14.00
2022-11-07T15:24:47.528Z,16.45
2022-11-07T15:27:14.588Z,12.80
2022-11-07T15:29:53.585Z,14.20
2022-11-07T15:32:22.656Z,15.82
2022-11-07T15:37:39.276Z,14.00
2022-11-07T15:40:23.009Z,13.75
2022-11-07T15:42:50.474Z,14.23
2022-11-07T15:45:18.849Z,14.63
2022-11-07T15:47:47.235Z,17.20
2022-11-07T15:50:21.125Z,13.40
2022-11-07T15:52:53.610Z,16.10
2022-11-07T15:55:22.879Z,17.00
2022-11-07T15:57:52.309Z,16.13
2022-11-07T16:00:22.403Z,16.63
2022-11-07T16:02:49.994Z,14.70
2022-11-07T16:05:17.411Z,20.05
2022-11-07T16:07:46.062Z,14.70
2022-11-07T16:10:40.610Z,15.23
2022-11-07T16:13:09.615Z,14.93
2022-11-07T16:15:37.305Z,14.70
2022-11-07T16:18:04.816Z,16.50
2022-11-07T16:20:36.230Z,14.02
2022-11-07T16:23:06.100Z,15.27
2022-11-07T16:25:33.602Z,14.20
2022-11-07T16:28:03.398Z,15.02
2022-11-07T16:30:36.842Z,14.57
2022-11-07T16:33:04.155Z,14.90
2022-11-07T16:35:33.722Z,15.45
2022-11-07T16:38:02.008Z,15.63
2022-11-07T16:40:35.913Z,14.88
2022-11-07T16:43:11.014Z,14.80
2022-11-07T16:45:53.353Z,15.05
2022-11-07T16:48:25.516Z,14.88
2022-11-07T16:50:56.801Z,16.95
2022-11-07T16:53:25.461Z,15.18
2022-11-07T16:56:33.049Z,17.00
2022-11-07T16:59:18.934Z,14.63
2022-11-07T17:01:57.871Z,14.45
2022-11-07T17:08:01.745Z,17.90
2022-11-07T17:10:34.459Z,15.15
2022-11-07T17:13:01.574Z,16.20
2022-11-07T17:15:29.126Z,15.85
2022-11-07T17:18:07.281Z,15.43
2022-11-07T17:20:50.412Z,14.15
2022-11-07T17:23:18.743Z,16.02
2022-11-07T17:25:52.451Z,15.75
2022-11-07T17:28:21.146Z,15.95
2022-11-07T17:30:50.676Z,16.60
2022-11-07T17:33:20.987Z,15.90
2022-11-07T17:35:56.565Z,22.08
2022-11-07T17:38:26.933Z,21.85
2022-11-07T17:41:17.371Z,15.93
2022-11-07T17:43:45.935Z,16.70
2022-11-07T17:46:36.808Z,17.02
2022-11-07T17:49:09.228Z,23.20
2022-11-07T17:51:36.822Z,24.35
2022-11-07T17:54:07.681Z,20.27
2022-11-07T17:56:39.596Z,16.20
2022-11-07T17:59:19.318Z,16.70
2022-11-07T18:02:07.679Z,16.70
2022-11-07T18:04:36.673Z,15.73
2022-11-07T18:10:05.940Z,16.33
2022-11-07T18:12:35.214Z,15.07
2022-11-07T18:15:14.462Z,17.38
2022-11-07T18:18:39.426Z,16.10
2022-11-07T18:20:43.066Z,17.25
2022-11-07T18:23:12.876Z,16.45
2022-11-07T18:25:41.482Z,16.80
2022-11-07T18:28:18.724Z,18.10
2022-11-07T18:30:46.336Z,17.13
2022-11-07T18:33:22.154Z,18.52
2022-11-07T18:35:49.528Z,18.48
2022-11-07T18:38:17.389Z,21.63
2022-11-07T18:41:03.612Z,18.30
2022-11-07T18:45:58.693Z,19.55
2022-11-07T18:48:26.514Z,17.95
2022-11-07T18:51:26.496Z,19.05
2022-11-07T18:54:01.991Z,17.52
2022-11-07T18:56:33.830Z,21.45
2022-11-07T18:59:04.222Z,21.33
2022-11-07T19:01:32.548Z,19.95
2022-11-07T19:04:03.720Z,21.25
2022-11-07T19:06:55.779Z,23.30
2022-11-07T19:09:31.308Z,20.45
2022-11-07T19:17:11.529Z,22.97
2022-11-07T19:19:39.009Z,22.30
2022-11-07T19:22:06.833Z,21.95
2022-11-07T19:24:34.597Z,25.30
2022-11-07T19:27:02.155Z,23.10
2022-11-07T19:29:29.534Z,22.27
2022-11-07T19:31:56.830Z,30.45
2022-11-07T19:34:25.759Z,25.00
2022-11-07T19:36:52.882Z,20.38
2022-11-07T19:39:20.127Z,20.42
2022-11-07T19:41:47.347Z,30.25
2022-11-07T19:44:14.743Z,23.67
2022-11-07T19:46:41.997Z,22.88
2022-11-07T19:49:15.086Z,22.45
2022-11-07T19:51:42.284Z,25.08
2022-11-07T19:54:12.202Z,23.48
2022-11-07T19:56:41.205Z,21.60
2022-11-07T19:59:09.919Z,20.33
2022-11-07T20:01:39.432Z,25.10
2022-11-07T20:04:29.916Z,19.70
2022-11-07T20:06:57.410Z,19.00
2022-11-07T20:09:25.636Z,26.10
2022-11-07T20:11:52.828Z,28.05
2022-11-07T20:14:25.002Z,29.70
2022-11-07T20:17:01.064Z,26.92
2022-11-07T20:19:30.730Z,19.92
2022-11-07T20:21:58.315Z,23.67
2022-11-07T20:24:33.194Z,24.35
2022-11-07T20:27:02.790Z,28.23
2022-11-07T20:29:32.713Z,21.77
2022-11-07T20:31:59.821Z,19.58
2022-11-07T20:34:26.853Z,21.52
2022-11-07T20:36:54.672Z,21.83
2022-11-07T20:39:23.935Z,26.08
2022-11-07T20:41:51.142Z,22.48
2022-11-07T20:44:18.396Z,23.35
2022-11-07T20:46:45.696Z,25.33
2022-11-07T20:49:15.232Z,23.00
2022-11-07T20:51:45.828Z,20.90
2022-11-07T20:54:17.033Z,22.58
2022-11-07T20:56:46.498Z,31.88
2022-11-07T20:59:18.101Z,23.90
2022-11-07T21:01:56.565Z,18.65
2022-11-07T21:04:28.318Z,22.15
2022-11-07T21:06:58.810Z,25.10
2022-11-07T21:09:28.398Z,22.05
2022-11-07T21:11:56.318Z,22.35
2022-11-07T21:14:31.717Z,20.25
2022-11-07T21:17:05.074Z,19.13
2022-11-07T21:19:35.387Z,20.45
2022-11-07T21:22:02.597Z,23.20
2022-11-07T21:24:37.870Z,21.90
2022-11-07T21:27:06.116Z,25.50
2022-11-07T21:29:33.619Z,20.23
2022-11-07T21:32:02.683Z,20.70
2022-11-07T21:34:30.025Z,23.50
2022-11-07T21:36:56.927Z,25.98
2022-11-07T21:39:24.145Z,19.80
2022-11-07T21:41:51.690Z,20.90
2022-11-07T21:44:18.718Z,23.45
2022-11-07T21:46:45.970Z,22.10
2022-11-07T21:49:17.334Z,26.30
2022-11-07T21:51:50.717Z,18.80
2022-11-07T21:54:25.667Z,25.20
2022-11-07T21:56:53.246Z,19.95
2022-11-07T21:59:20.588Z,22.00
2022-11-07T22:01:51.374Z,21.02
2022-11-07T22:04:18.819Z,20.98
2022-11-07T22:06:52.281Z,22.85
2022-11-07T22:09:25.583Z,26.48
2022-11-07T22:11:52.864Z,22.00
2022-11-07T22:14:22.854Z,20.90
2022-11-07T22:16:56.599Z,20.35
2022-11-07T22:19:24.008Z,19.45
2022-11-07T22:21:51.099Z,22.58
2022-11-07T22:24:18.270Z,20.88
2022-11-07T22:26:45.565Z,20.70
2022-11-07T22:29:12.794Z,19.73
2022-11-07T22:31:39.800Z,20.23
2022-11-07T22:34:07.057Z,24.95
2022-11-07T22:36:34.116Z,19.08
2022-11-07T22:39:01.939Z,23.73
2022-11-07T22:41:29.569Z,26.25
2022-11-07T22:43:57.793Z,23.38
2022-11-07T22:46:28.994Z,20.55
2022-11-07T22:48:58.741Z,20.42
2022-11-07T22:51:32.832Z,22.55
2022-11-07T22:54:06.356Z,21.40
2022-11-07T22:56:35.536Z,20.73
2022-11-07T22:59:03.384Z,19.58
2022-11-07T23:01:34.057Z,22.67
2022-11-07T23:04:01.380Z,20.88
2022-11-07T23:06:29.885Z,22.85
2022-11-07T23:08:58.399Z,16.73
2022-11-07T23:11:52.073Z,22.17
2022-11-07T23:14:21.248Z,21.85
2022-11-07T23:16:55.817Z,19.38
2022-11-07T23:19:26.090Z,21.25
2022-11-07T23:21:54.970Z,20.77
2022-11-07T23:24:22.636Z,17.10
2022-11-07T23:26:50.308Z,20.60
2022-11-07T23:29:23.296Z,21.73
2022-11-07T23:31:51.914Z,21.73
2022-11-07T23:34:21.446Z,18.52
2022-11-07T23:36:52.233Z,18.60
2022-11-07T23:39:21.567Z,18.00
2022-11-07T23:41:48.961Z,19.90
2022-11-07T23:44:16.304Z,17.25
2022-11-07T23:47:02.858Z,18.52
2022-11-07T23:49:48.759Z,17.80
2022-11-07T23:52:16.492Z,20.10
2022-11-07T23:55:01.830Z,24.13
2022-11-07T23:57:28.912Z,19.77
